sensor_id;sensor_type;location;lat;lon;timestamp;P1;durP1;ratioP1;P2;durP2;ratioP2
73747;SDS011;62056;52.130;5.428;2023-04-30T00:01:26;8.65;;;5.97;;
73747;SDS011;62056;52.130;5.428;2023-04-30T00:03:52;11.77;;;6.68;;
73747;SDS011;62056;52.130;5.428;2023-04-30T00:06:19;10.27;;;5.95;;
73747;SDS011;62056;52.130;5.428;2023-04-30T00:08:46;7.65;;;5.40;;
73747;SDS011;62056;52.130;5.428;2023-04-30T00:11:12;16.87;;;6.47;;
73747;SDS011;62056;52.130;5.428;2023-04-30T00:13:39;8.27;;;6.28;;
73747;SDS011;62056;52.130;5.428;2023-04-30T00:16:08;10.73;;;6.15;;
73747;SDS011;62056;52.130;5.428;2023-04-30T00:18:37;12.50;;;6.07;;
73747;SDS011;62056;52.130;5.428;2023-04-30T00:21:04;10.63;;;6.38;;
73747;SDS011;62056;52.130;5.428;2023-04-30T00:23:30;11.70;;;6.50;;
73747;SDS011;62056;52.130;5.428;2023-04-30T00:25:57;11.90;;;6.38;;
73747;SDS011;62056;52.130;5.428;2023-04-30T00:28:23;8.32;;;6.68;;
73747;SDS011;62056;52.130;5.428;2023-04-30T00:30:50;10.20;;;6.10;;
73747;SDS011;62056;52.130;5.428;2023-04-30T00:33:17;11.93;;;6.53;;
73747;SDS011;62056;52.130;5.428;2023-04-30T00:35:43;10.03;;;5.57;;
73747;SDS011;62056;52.130;5.428;2023-04-30T00:38:10;9.43;;;6.53;;
73747;SDS011;62056;52.130;5.428;2023-04-30T00:40:36;7.07;;;6.32;;
73747;SDS011;62056;52.130;5.428;2023-04-30T00:43:03;11.68;;;6.63;;
73747;SDS011;62056;52.130;5.428;2023-04-30T00:45:30;8.88;;;6.00;;
73747;SDS011;62056;52.130;5.428;2023-04-30T00:47:57;11.90;;;6.50;;
73747;SDS011;62056;52.130;5.428;2023-04-30T00:50:24;6.80;;;6.07;;
73747;SDS011;62056;52.130;5.428;2023-04-30T00:52:51;9.40;;;6.53;;
73747;SDS011;62056;52.130;5.428;2023-04-30T00:55:17;7.03;;;5.28;;
73747;SDS011;62056;52.130;5.428;2023-04-30T00:57:45;8.60;;;5.25;;
73747;SDS011;62056;52.130;5.428;2023-04-30T01:00:12;10.03;;;5.50;;
73747;SDS011;62056;52.130;5.428;2023-04-30T01:02:39;10.15;;;6.65;;
73747;SDS011;62056;52.130;5.428;2023-04-30T01:05:06;10.43;;;6.43;;
73747;SDS011;62056;52.130;5.428;2023-04-30T01:07:33;8.68;;;5.13;;
73747;SDS011;62056;52.130;5.428;2023-04-30T01:10:01;14.23;;;6.80;;
73747;SDS011;62056;52.130;5.428;2023-04-30T01:12:32;9.43;;;6.30;;
73747;SDS011;62056;52.130;5.428;2023-04-30T01:15:07;9.75;;;6.13;;
73747;SDS011;62056;52.130;5.428;2023-04-30T01:20:28;9.45;;;6.35;;
73747;SDS011;62056;52.130;5.428;2023-04-30T01:23:02;6.95;;;6.10;;
73747;SDS011;62056;52.130;5.428;2023-04-30T01:28:42;10.98;;;5.82;;
73747;SDS011;62056;52.130;5.428;2023-04-30T01:31:14;7.80;;;5.63;;
73747;SDS011;62056;52.130;5.428;2023-04-30T01:33:44;9.75;;;6.00;;
73747;SDS011;62056;52.130;5.428;2023-04-30T01:39:14;8.67;;;5.20;;
73747;SDS011;62056;52.130;5.428;2023-04-30T01:42:01;11.48;;;5.90;;
73747;SDS011;62056;52.130;5.428;2023-04-30T01:44:50;7.07;;;5.15;;
73747;SDS011;62056;52.130;5.428;2023-04-30T01:47:39;9.52;;;5.55;;
73747;SDS011;62056;52.130;5.428;2023-04-30T01:50:22;10.82;;;6.10;;
73747;SDS011;62056;52.130;5.428;2023-04-30T01:52:57;11.33;;;5.70;;
73747;SDS011;62056;52.130;5.428;2023-04-30T01:55:27;9.82;;;5.93;;
73747;SDS011;62056;52.130;5.428;2023-04-30T01:58:14;7.47;;;5.85;;
73747;SDS011;62056;52.130;5.428;2023-04-30T02:00:41;9.60;;;6.15;;
73747;SDS011;62056;52.130;5.428;2023-04-30T02:03:08;7.10;;;5.70;;
73747;SDS011;62056;52.130;5.428;2023-04-30T02:05:35;6.27;;;5.33;;
73747;SDS011;62056;52.130;5.428;2023-04-30T02:08:02;7.95;;;5.78;;
73747;SDS011;62056;52.130;5.428;2023-04-30T02:10:28;6.22;;;5.45;;
73747;SDS011;62056;52.130;5.428;2023-04-30T02:12:55;6.18;;;5.32;;
73747;SDS011;62056;52.130;5.428;2023-04-30T02:15:22;7.85;;;5.70;;
73747;SDS011;62056;52.130;5.428;2023-04-30T02:17:49;6.90;;;5.00;;
73747;SDS011;62056;52.130;5.428;2023-04-30T02:20:16;7.80;;;5.10;;
73747;SDS011;62056;52.130;5.428;2023-04-30T02:22:43;6.88;;;5.70;;
73747;SDS011;62056;52.130;5.428;2023-04-30T02:25:09;7.70;;;6.07;;
73747;SDS011;62056;52.130;5.428;2023-04-30T02:27:37;7.68;;;5.28;;
73747;SDS011;62056;52.130;5.428;2023-04-30T02:30:04;8.50;;;5.77;;
73747;SDS011;62056;52.130;5.428;2023-04-30T02:32:32;9.68;;;5.50;;
73747;SDS011;62056;52.130;5.428;2023-04-30T02:34:58;6.60;;;5.38;;
73747;SDS011;62056;52.130;5.428;2023-04-30T02:37:25;8.45;;;6.00;;
73747;SDS011;62056;52.130;5.428;2023-04-30T02:39:52;7.22;;;4.80;;
73747;SDS011;62056;52.130;5.428;2023-04-30T02:42:19;7.10;;;5.13;;
73747;SDS011;62056;52.130;5.428;2023-04-30T02:44:46;7.97;;;5.18;;
73747;SDS011;62056;52.130;5.428;2023-04-30T02:47:13;6.72;;;5.53;;
73747;SDS011;62056;52.130;5.428;2023-04-30T02:49:40;8.20;;;4.93;;
73747;SDS011;62056;52.130;5.428;2023-04-30T02:52:07;5.57;;;4.95;;
73747;SDS011;62056;52.130;5.428;2023-04-30T02:54:35;6.60;;;5.03;;
73747;SDS011;62056;52.130;5.428;2023-04-30T02:57:02;7.05;;;4.95;;
73747;SDS011;62056;52.130;5.428;2023-04-30T02:59:29;6.82;;;5.40;;
73747;SDS011;62056;52.130;5.428;2023-04-30T03:01:56;8.15;;;5.13;;
73747;SDS011;62056;52.130;5.428;2023-04-30T03:04:22;9.30;;;5.55;;
73747;SDS011;62056;52.130;5.428;2023-04-30T03:06:49;6.87;;;4.77;;
73747;SDS011;62056;52.130;5.428;2023-04-30T03:09:15;7.55;;;4.68;;
73747;SDS011;62056;52.130;5.428;2023-04-30T03:11:43;7.50;;;5.32;;
73747;SDS011;62056;52.130;5.428;2023-04-30T03:14:10;9.15;;;4.75;;
73747;SDS011;62056;52.130;5.428;2023-04-30T03:16:37;7.88;;;5.25;;
73747;SDS011;62056;52.130;5.428;2023-04-30T03:19:04;8.23;;;5.43;;
73747;SDS011;62056;52.130;5.428;2023-04-30T03:21:31;7.10;;;5.03;;
73747;SDS011;62056;52.130;5.428;2023-04-30T03:23:57;9.43;;;4.82;;
73747;SDS011;62056;52.130;5.428;2023-04-30T03:26:24;6.13;;;5.38;;
73747;SDS011;62056;52.130;5.428;2023-04-30T03:28:51;7.75;;;5.25;;
73747;SDS011;62056;52.130;5.428;2023-04-30T03:31:17;5.60;;;4.30;;
73747;SDS011;62056;52.130;5.428;2023-04-30T03:33:44;6.30;;;4.88;;
73747;SDS011;62056;52.130;5.428;2023-04-30T03:36:11;6.57;;;5.47;;
73747;SDS011;62056;52.130;5.428;2023-04-30T03:38:39;9.50;;;5.75;;
73747;SDS011;62056;52.130;5.428;2023-04-30T03:41:06;10.48;;;5.50;;
73747;SDS011;62056;52.130;5.428;2023-04-30T03:43:33;5.90;;;5.00;;
73747;SDS011;62056;52.130;5.428;2023-04-30T03:45:59;6.03;;;5.43;;
73747;SDS011;62056;52.130;5.428;2023-04-30T03:48:26;6.18;;;4.82;;
73747;SDS011;62056;52.130;5.428;2023-04-30T03:50:53;7.45;;;5.25;;
73747;SDS011;62056;52.130;5.428;2023-04-30T03:53:20;11.23;;;4.88;;
73747;SDS011;62056;52.130;5.428;2023-04-30T03:55:47;6.90;;;5.27;;
73747;SDS011;62056;52.130;5.428;2023-04-30T03:58:15;5.85;;;4.75;;
73747;SDS011;62056;52.130;5.428;2023-04-30T04:00:41;10.05;;;5.32;;
73747;SDS011;62056;52.130;5.428;2023-04-30T04:03:08;6.32;;;4.97;;
73747;SDS011;62056;52.130;5.428;2023-04-30T04:05:35;11.07;;;5.18;;
73747;SDS011;62056;52.130;5.428;2023-04-30T04:08:02;5.53;;;5.03;;
73747;SDS011;62056;52.130;5.428;2023-04-30T04:10:28;6.28;;;4.72;;
73747;SDS011;62056;52.130;5.428;2023-04-30T04:12:55;8.68;;;5.40;;
73747;SDS011;62056;52.130;5.428;2023-04-30T04:15:22;8.82;;;4.97;;
73747;SDS011;62056;52.130;5.428;2023-04-30T04:17:54;5.53;;;4.50;;
73747;SDS011;62056;52.130;5.428;2023-04-30T04:20:21;6.30;;;4.70;;
73747;SDS011;62056;52.130;5.428;2023-04-30T04:22:48;8.20;;;4.47;;
73747;SDS011;62056;52.130;5.428;2023-04-30T04:25:14;4.63;;;3.78;;
73747;SDS011;62056;52.130;5.428;2023-04-30T04:27:43;7.40;;;4.60;;
73747;SDS011;62056;52.130;5.428;2023-04-30T04:30:10;8.27;;;5.07;;
73747;SDS011;62056;52.130;5.428;2023-04-30T04:32:37;6.43;;;4.73;;
73747;SDS011;62056;52.130;5.428;2023-04-30T04:35:13;4.68;;;4.03;;
73747;SDS011;62056;52.130;5.428;2023-04-30T04:37:41;5.15;;;4.30;;
73747;SDS011;62056;52.130;5.428;2023-04-30T04:40:08;6.55;;;4.60;;
73747;SDS011;62056;52.130;5.428;2023-04-30T04:42:35;7.30;;;5.25;;
73747;SDS011;62056;52.130;5.428;2023-04-30T04:45:06;6.63;;;4.73;;
73747;SDS011;62056;52.130;5.428;2023-04-30T04:47:33;5.00;;;4.05;;
73747;SDS011;62056;52.130;5.428;2023-04-30T04:50:00;6.15;;;4.57;;
73747;SDS011;62056;52.130;5.428;2023-04-30T04:52:27;5.57;;;4.97;;
73747;SDS011;62056;52.130;5.428;2023-04-30T04:54:54;6.30;;;4.63;;
73747;SDS011;62056;52.130;5.428;2023-04-30T04:57:21;5.27;;;4.00;;
73747;SDS011;62056;52.130;5.428;2023-04-30T04:59:47;4.45;;;3.50;;
73747;SDS011;62056;52.130;5.428;2023-04-30T05:02:14;4.40;;;3.67;;
73747;SDS011;62056;52.130;5.428;2023-04-30T05:04:41;8.88;;;4.80;;
73747;SDS011;62056;52.130;5.428;2023-04-30T05:07:07;4.97;;;4.15;;
73747;SDS011;62056;52.130;5.428;2023-04-30T05:09:34;3.83;;;3.40;;
73747;SDS011;62056;52.130;5.428;2023-04-30T05:12:01;3.88;;;3.55;;
73747;SDS011;62056;52.130;5.428;2023-04-30T05:14:27;6.30;;;4.10;;
73747;SDS011;62056;52.130;5.428;2023-04-30T05:16:54;3.75;;;3.35;;
73747;SDS011;62056;52.130;5.428;2023-04-30T05:19:21;5.15;;;4.65;;
73747;SDS011;62056;52.130;5.428;2023-04-30T05:21:48;4.80;;;3.80;;
73747;SDS011;62056;52.130;5.428;2023-04-30T05:24:14;4.90;;;4.35;;
73747;SDS011;62056;52.130;5.428;2023-04-30T05:26:41;8.20;;;4.32;;
73747;SDS011;62056;52.130;5.428;2023-04-30T05:29:08;6.63;;;4.63;;
73747;SDS011;62056;52.130;5.428;2023-04-30T05:31:35;6.10;;;4.55;;
73747;SDS011;62056;52.130;5.428;2023-04-30T05:34:02;7.97;;;4.73;;
73747;SDS011;62056;52.130;5.428;2023-04-30T05:36:29;6.57;;;4.47;;
73747;SDS011;62056;52.130;5.428;2023-04-30T05:38:57;11.88;;;4.43;;
73747;SDS011;62056;52.130;5.428;2023-04-30T05:41:23;4.07;;;3.67;;
73747;SDS011;62056;52.130;5.428;2023-04-30T05:44:18;6.57;;;3.70;;
73747;SDS011;62056;52.130;5.428;2023-04-30T05:46:44;7.17;;;3.87;;
73747;SDS011;62056;52.130;5.428;2023-04-30T05:49:11;9.93;;;4.60;;
73747;SDS011;62056;52.130;5.428;2023-04-30T05:51:38;6.50;;;3.83;;
73747;SDS011;62056;52.130;5.428;2023-04-30T05:54:05;6.05;;;4.13;;
73747;SDS011;62056;52.130;5.428;2023-04-30T05:56:31;7.72;;;3.90;;
73747;SDS011;62056;52.130;5.428;2023-04-30T05:58:58;9.77;;;3.70;;
73747;SDS011;62056;52.130;5.428;2023-04-30T06:01:25;5.30;;;3.83;;
73747;SDS011;62056;52.130;5.428;2023-04-30T06:03:54;10.32;;;3.30;;
73747;SDS011;62056;52.130;5.428;2023-04-30T06:06:20;6.78;;;3.38;;
73747;SDS011;62056;52.130;5.428;2023-04-30T06:08:47;5.72;;;4.07;;
73747;SDS011;62056;52.130;5.428;2023-04-30T06:11:14;6.77;;;3.77;;
73747;SDS011;62056;52.130;5.428;2023-04-30T06:13:40;9.63;;;4.53;;
73747;SDS011;62056;52.130;5.428;2023-04-30T06:16:07;11.05;;;4.55;;
73747;SDS011;62056;52.130;5.428;2023-04-30T06:18:34;9.05;;;3.88;;
73747;SDS011;62056;52.130;5.428;2023-04-30T06:21:01;6.15;;;4.55;;
73747;SDS011;62056;52.130;5.428;2023-04-30T06:23:33;6.60;;;3.13;;
73747;SDS011;62056;52.130;5.428;2023-04-30T06:25:59;5.60;;;3.45;;
73747;SDS011;62056;52.130;5.428;2023-04-30T06:28:26;4.65;;;3.53;;
73747;SDS011;62056;52.130;5.428;2023-04-30T06:30:52;4.53;;;3.85;;
73747;SDS011;62056;52.130;5.428;2023-04-30T06:33:20;6.05;;;2.80;;
73747;SDS011;62056;52.130;5.428;2023-04-30T06:35:47;4.13;;;3.10;;
73747;SDS011;62056;52.130;5.428;2023-04-30T06:38:16;3.85;;;2.80;;
73747;SDS011;62056;52.130;5.428;2023-04-30T06:40:45;8.95;;;3.25;;
73747;SDS011;62056;52.130;5.428;2023-04-30T06:43:12;6.10;;;2.85;;
73747;SDS011;62056;52.130;5.428;2023-04-30T06:45:39;3.63;;;3.17;;
73747;SDS011;62056;52.130;5.428;2023-04-30T06:48:06;4.67;;;3.77;;
73747;SDS011;62056;52.130;5.428;2023-04-30T06:50:33;7.97;;;3.17;;
73747;SDS011;62056;52.130;5.428;2023-04-30T06:53:00;5.20;;;3.72;;
73747;SDS011;62056;52.130;5.428;2023-04-30T06:55:28;5.25;;;3.67;;
73747;SDS011;62056;52.130;5.428;2023-04-30T06:57:55;3.47;;;2.90;;
73747;SDS011;62056;52.130;5.428;2023-04-30T07:00:23;6.27;;;3.70;;
73747;SDS011;62056;52.130;5.428;2023-04-30T07:02:50;6.10;;;3.25;;
73747;SDS011;62056;52.130;5.428;2023-04-30T07:05:17;3.67;;;2.90;;
73747;SDS011;62056;52.130;5.428;2023-04-30T07:07:44;3.72;;;2.33;;
73747;SDS011;62056;52.130;5.428;2023-04-30T07:10:11;3.65;;;2.72;;
73747;SDS011;62056;52.130;5.428;2023-04-30T07:12:38;5.10;;;2.90;;
73747;SDS011;62056;52.130;5.428;2023-04-30T07:15:05;3.20;;;2.90;;
73747;SDS011;62056;52.130;5.428;2023-04-30T07:17:32;4.80;;;2.60;;
73747;SDS011;62056;52.130;5.428;2023-04-30T07:19:59;4.13;;;2.60;;
73747;SDS011;62056;52.130;5.428;2023-04-30T07:22:26;3.03;;;2.40;;
73747;SDS011;62056;52.130;5.428;2023-04-30T07:24:52;5.70;;;2.57;;
73747;SDS011;62056;52.130;5.428;2023-04-30T07:27:19;5.50;;;3.38;;
73747;SDS011;62056;52.130;5.428;2023-04-30T07:29:46;4.38;;;2.83;;
73747;SDS011;62056;52.130;5.428;2023-04-30T07:32:13;3.40;;;2.75;;
73747;SDS011;62056;52.130;5.428;2023-04-30T07:34:41;3.47;;;2.75;;
73747;SDS011;62056;52.130;5.428;2023-04-30T07:37:08;3.73;;;2.63;;
73747;SDS011;62056;52.130;5.428;2023-04-30T07:39:35;5.13;;;3.30;;
73747;SDS011;62056;52.130;5.428;2023-04-30T07:42:05;4.90;;;3.35;;
73747;SDS011;62056;52.130;5.428;2023-04-30T07:44:32;5.78;;;2.90;;
73747;SDS011;62056;52.130;5.428;2023-04-30T07:46:58;5.85;;;3.25;;
73747;SDS011;62056;52.130;5.428;2023-04-30T07:49:25;5.10;;;2.80;;
73747;SDS011;62056;52.130;5.428;2023-04-30T07:51:52;4.47;;;3.03;;
73747;SDS011;62056;52.130;5.428;2023-04-30T07:54:19;4.22;;;2.53;;
73747;SDS011;62056;52.130;5.428;2023-04-30T07:56:46;5.90;;;3.35;;
73747;SDS011;62056;52.130;5.428;2023-04-30T07:59:14;3.65;;;3.05;;
73747;SDS011;62056;52.130;5.428;2023-04-30T08:01:41;4.77;;;2.93;;
73747;SDS011;62056;52.130;5.428;2023-04-30T08:04:08;5.90;;;2.90;;
73747;SDS011;62056;52.130;5.428;2023-04-30T08:06:35;4.30;;;2.25;;
73747;SDS011;62056;52.130;5.428;2023-04-30T08:09:02;4.22;;;2.83;;
73747;SDS011;62056;52.130;5.428;2023-04-30T08:11:29;5.32;;;2.90;;
73747;SDS011;62056;52.130;5.428;2023-04-30T08:13:55;3.50;;;2.40;;
73747;SDS011;62056;52.130;5.428;2023-04-30T08:16:22;3.72;;;2.85;;
73747;SDS011;62056;52.130;5.428;2023-04-30T08:18:49;4.60;;;2.80;;
73747;SDS011;62056;52.130;5.428;2023-04-30T08:21:16;3.53;;;2.97;;
73747;SDS011;62056;52.130;5.428;2023-04-30T08:23:43;4.10;;;3.53;;
73747;SDS011;62056;52.130;5.428;2023-04-30T08:26:09;6.83;;;3.67;;
73747;SDS011;62056;52.130;5.428;2023-04-30T08:28:36;3.63;;;3.33;;
73747;SDS011;62056;52.130;5.428;2023-04-30T08:31:03;3.55;;;3.17;;
73747;SDS011;62056;52.130;5.428;2023-04-30T08:33:30;4.95;;;3.60;;
73747;SDS011;62056;52.130;5.428;2023-04-30T08:35:58;5.38;;;2.88;;
73747;SDS011;62056;52.130;5.428;2023-04-30T08:38:26;5.37;;;3.13;;
73747;SDS011;62056;52.130;5.428;2023-04-30T08:41:12;3.60;;;2.60;;
73747;SDS011;62056;52.130;5.428;2023-04-30T08:43:41;3.08;;;2.33;;
73747;SDS011;62056;52.130;5.428;2023-04-30T08:46:10;4.10;;;2.58;;
73747;SDS011;62056;52.130;5.428;2023-04-30T08:48:40;6.53;;;4.25;;
73747;SDS011;62056;52.130;5.428;2023-04-30T08:51:07;3.40;;;2.10;;
73747;SDS011;62056;52.130;5.428;2023-04-30T08:53:34;2.95;;;2.25;;
73747;SDS011;62056;52.130;5.428;2023-04-30T08:56:03;4.32;;;2.40;;
73747;SDS011;62056;52.130;5.428;2023-04-30T08:58:31;3.13;;;2.33;;
73747;SDS011;62056;52.130;5.428;2023-04-30T09:00:58;3.92;;;2.10;;
73747;SDS011;62056;52.130;5.428;2023-04-30T09:03:25;4.80;;;2.33;;
73747;SDS011;62056;52.130;5.428;2023-04-30T09:05:53;2.78;;;1.60;;
73747;SDS011;62056;52.130;5.428;2023-04-30T09:08:42;3.33;;;2.55;;
73747;SDS011;62056;52.130;5.428;2023-04-30T09:11:29;2.80;;;1.83;;
73747;SDS011;62056;52.130;5.428;2023-04-30T09:13:57;3.38;;;1.60;;
73747;SDS011;62056;52.130;5.428;2023-04-30T09:16:26;4.27;;;1.83;;
73747;SDS011;62056;52.130;5.428;2023-04-30T09:18:56;6.78;;;1.85;;
73747;SDS011;62056;52.130;5.428;2023-04-30T09:21:30;3.30;;;1.70;;
73747;SDS011;62056;52.130;5.428;2023-04-30T09:23:59;2.15;;;1.55;;
73747;SDS011;62056;52.130;5.428;2023-04-30T09:26:30;5.57;;;1.83;;
73747;SDS011;62056;52.130;5.428;2023-04-30T09:29:03;2.43;;;1.30;;
73747;SDS011;62056;52.130;5.428;2023-04-30T09:31:34;5.20;;;1.45;;
73747;SDS011;62056;52.130;5.428;2023-04-30T09:34:02;4.68;;;1.60;;
73747;SDS011;62056;52.130;5.428;2023-04-30T09:36:30;2.63;;;1.60;;
73747;SDS011;62056;52.130;5.428;2023-04-30T09:39:06;1.75;;;1.25;;
73747;SDS011;62056;52.130;5.428;2023-04-30T09:41:41;2.27;;;1.60;;
73747;SDS011;62056;52.130;5.428;2023-04-30T09:44:13;2.83;;;1.55;;
73747;SDS011;62056;52.130;5.428;2023-04-30T09:46:55;3.17;;;1.55;;
73747;SDS011;62056;52.130;5.428;2023-04-30T09:49:25;2.38;;;1.38;;
73747;SDS011;62056;52.130;5.428;2023-04-30T09:51:53;3.70;;;1.88;;
73747;SDS011;62056;52.130;5.428;2023-04-30T09:54:25;2.00;;;1.43;;
73747;SDS011;62056;52.130;5.428;2023-04-30T09:56:56;1.80;;;1.23;;
73747;SDS011;62056;52.130;5.428;2023-04-30T09:59:27;2.85;;;1.65;;
73747;SDS011;62056;52.130;5.428;2023-04-30T10:02:01;1.80;;;1.50;;
73747;SDS011;62056;52.130;5.428;2023-04-30T10:04:30;3.33;;;2.80;;
73747;SDS011;62056;52.130;5.428;2023-04-30T10:07:12;4.03;;;1.80;;
73747;SDS011;62056;52.130;5.428;2023-04-30T10:09:50;2.83;;;1.50;;
73747;SDS011;62056;52.130;5.428;2023-04-30T10:12:33;1.92;;;1.20;;
73747;SDS011;62056;52.130;5.428;2023-04-30T10:18:06;4.22;;;2.08;;
73747;SDS011;62056;52.130;5.428;2023-04-30T10:21:03;3.20;;;1.67;;
73747;SDS011;62056;52.130;5.428;2023-04-30T10:23:43;2.08;;;1.63;;
73747;SDS011;62056;52.130;5.428;2023-04-30T10:26:17;3.58;;;1.50;;
73747;SDS011;62056;52.130;5.428;2023-04-30T10:28:53;3.25;;;1.50;;
73747;SDS011;62056;52.130;5.428;2023-04-30T10:31:27;3.35;;;1.70;;
73747;SDS011;62056;52.130;5.428;2023-04-30T10:34:26;3.60;;;1.57;;
73747;SDS011;62056;52.130;5.428;2023-04-30T10:37:11;1.50;;;1.40;;
73747;SDS011;62056;52.130;5.428;2023-04-30T10:39:49;3.60;;;1.60;;
73747;SDS011;62056;52.130;5.428;2023-04-30T10:42:17;2.90;;;1.08;;
73747;SDS011;62056;52.130;5.428;2023-04-30T10:44:44;3.65;;;1.70;;
73747;SDS011;62056;52.130;5.428;2023-04-30T10:47:10;2.30;;;1.37;;
73747;SDS011;62056;52.130;5.428;2023-04-30T10:49:37;1.73;;;1.33;;
73747;SDS011;62056;52.130;5.428;2023-04-30T10:52:04;2.28;;;1.58;;
73747;SDS011;62056;52.130;5.428;2023-04-30T10:54:34;5.90;;;2.03;;
73747;SDS011;62056;52.130;5.428;2023-04-30T10:57:11;1.85;;;1.60;;
73747;SDS011;62056;52.130;5.428;2023-04-30T10:59:51;3.13;;;1.63;;
73747;SDS011;62056;52.130;5.428;2023-04-30T11:02:19;3.03;;;1.65;;
73747;SDS011;62056;52.130;5.428;2023-04-30T11:07:34;2.60;;;1.35;;
73747;SDS011;62056;52.130;5.428;2023-04-30T11:10:01;3.42;;;1.70;;
73747;SDS011;62056;52.130;5.428;2023-04-30T11:12:28;2.13;;;1.50;;
73747;SDS011;62056;52.130;5.428;2023-04-30T11:14:59;2.35;;;1.30;;
73747;SDS011;62056;52.130;5.428;2023-04-30T11:17:38;2.17;;;1.60;;
73747;SDS011;62056;52.130;5.428;2023-04-30T11:20:05;2.78;;;1.40;;
73747;SDS011;62056;52.130;5.428;2023-04-30T11:22:37;3.20;;;1.75;;
73747;SDS011;62056;52.130;5.428;2023-04-30T11:25:05;1.80;;;1.27;;
73747;SDS011;62056;52.130;5.428;2023-04-30T11:27:37;2.70;;;1.85;;
73747;SDS011;62056;52.130;5.428;2023-04-30T11:32:38;2.97;;;1.33;;
73747;SDS011;62056;52.130;5.428;2023-04-30T11:35:06;4.10;;;1.42;;
73747;SDS011;62056;52.130;5.428;2023-04-30T11:37:34;2.17;;;1.20;;
73747;SDS011;62056;52.130;5.428;2023-04-30T11:40:03;1.92;;;1.45;;
73747;SDS011;62056;52.130;5.428;2023-04-30T11:42:33;2.38;;;1.13;;
73747;SDS011;62056;52.130;5.428;2023-04-30T11:47:41;1.77;;;1.23;;
73747;SDS011;62056;52.130;5.428;2023-04-30T11:50:10;1.83;;;1.50;;
73747;SDS011;62056;52.130;5.428;2023-04-30T11:52:39;1.75;;;1.48;;
73747;SDS011;62056;52.130;5.428;2023-04-30T11:55:13;4.93;;;1.10;;
73747;SDS011;62056;52.130;5.428;2023-04-30T11:57:45;2.28;;;1.40;;
73747;SDS011;62056;52.130;5.428;2023-04-30T12:00:16;2.38;;;1.45;;
73747;SDS011;62056;52.130;5.428;2023-04-30T12:02:45;2.20;;;1.37;;
73747;SDS011;62056;52.130;5.428;2023-04-30T12:05:18;1.73;;;1.30;;
73747;SDS011;62056;52.130;5.428;2023-04-30T12:07:47;2.10;;;1.50;;
73747;SDS011;62056;52.130;5.428;2023-04-30T12:10:21;1.80;;;1.20;;
73747;SDS011;62056;52.130;5.428;2023-04-30T12:12:51;2.47;;;1.80;;
73747;SDS011;62056;52.130;5.428;2023-04-30T12:15:20;2.30;;;1.37;;
73747;SDS011;62056;52.130;5.428;2023-04-30T12:17:57;1.50;;;1.08;;
73747;SDS011;62056;52.130;5.428;2023-04-30T12:20:25;1.50;;;0.95;;
73747;SDS011;62056;52.130;5.428;2023-04-30T12:22:54;2.13;;;1.10;;
73747;SDS011;62056;52.130;5.428;2023-04-30T12:25:22;1.75;;;1.10;;
73747;SDS011;62056;52.130;5.428;2023-04-30T12:27:52;3.13;;;1.67;;
73747;SDS011;62056;52.130;5.428;2023-04-30T12:30:20;3.15;;;1.38;;
73747;SDS011;62056;52.130;5.428;2023-04-30T12:32:49;2.15;;;1.40;;
73747;SDS011;62056;52.130;5.428;2023-04-30T12:35:18;1.25;;;1.05;;
73747;SDS011;62056;52.130;5.428;2023-04-30T12:37:48;1.85;;;1.10;;
73747;SDS011;62056;52.130;5.428;2023-04-30T12:40:18;2.37;;;1.77;;
73747;SDS011;62056;52.130;5.428;2023-04-30T12:42:46;1.40;;;0.98;;
73747;SDS011;62056;52.130;5.428;2023-04-30T12:48:19;1.88;;;1.27;;
73747;SDS011;62056;52.130;5.428;2023-04-30T12:50:49;1.80;;;1.00;;
73747;SDS011;62056;52.130;5.428;2023-04-30T12:53:19;2.23;;;0.97;;
73747;SDS011;62056;52.130;5.428;2023-04-30T12:58:33;2.65;;;1.20;;
73747;SDS011;62056;52.130;5.428;2023-04-30T13:01:02;1.30;;;0.90;;
73747;SDS011;62056;52.130;5.428;2023-04-30T13:03:28;2.85;;;0.90;;
73747;SDS011;62056;52.130;5.428;2023-04-30T13:05:56;1.53;;;0.73;;
73747;SDS011;62056;52.130;5.428;2023-04-30T13:08:24;1.40;;;1.00;;
73747;SDS011;62056;52.130;5.428;2023-04-30T13:10:50;1.83;;;1.08;;
73747;SDS011;62056;52.130;5.428;2023-04-30T13:13:17;4.10;;;0.85;;
73747;SDS011;62056;52.130;5.428;2023-04-30T13:15:45;3.33;;;0.90;;
73747;SDS011;62056;52.130;5.428;2023-04-30T13:18:12;1.37;;;1.00;;
73747;SDS011;62056;52.130;5.428;2023-04-30T13:20:41;2.38;;;0.60;;
73747;SDS011;62056;52.130;5.428;2023-04-30T13:23:09;1.02;;;0.60;;
73747;SDS011;62056;52.130;5.428;2023-04-30T13:25:37;0.90;;;0.70;;
73747;SDS011;62056;52.130;5.428;2023-04-30T13:28:05;2.05;;;0.50;;
73747;SDS011;62056;52.130;5.428;2023-04-30T13:30:32;1.27;;;0.70;;
73747;SDS011;62056;52.130;5.428;2023-04-30T13:33:02;1.63;;;0.80;;
73747;SDS011;62056;52.130;5.428;2023-04-30T13:35:29;1.52;;;0.70;;
73747;SDS011;62056;52.130;5.428;2023-04-30T13:37:57;1.30;;;0.93;;
73747;SDS011;62056;52.130;5.428;2023-04-30T13:40:24;2.88;;;1.63;;
73747;SDS011;62056;52.130;5.428;2023-04-30T13:42:51;1.33;;;0.90;;
73747;SDS011;62056;52.130;5.428;2023-04-30T13:45:18;1.75;;;0.75;;
73747;SDS011;62056;52.130;5.428;2023-04-30T13:47:45;1.02;;;0.70;;
73747;SDS011;62056;52.130;5.428;2023-04-30T13:50:12;1.02;;;0.60;;
73747;SDS011;62056;52.130;5.428;2023-04-30T13:52:39;1.23;;;0.50;;
73747;SDS011;62056;52.130;5.428;2023-04-30T13:55:08;1.10;;;0.60;;
73747;SDS011;62056;52.130;5.428;2023-04-30T13:57:35;1.65;;;0.60;;
73747;SDS011;62056;52.130;5.428;2023-04-30T14:00:03;1.70;;;0.70;;
73747;SDS011;62056;52.130;5.428;2023-04-30T14:02:31;1.30;;;0.63;;
73747;SDS011;62056;52.130;5.428;2023-04-30T14:04:58;1.23;;;0.70;;
73747;SDS011;62056;52.130;5.428;2023-04-30T14:07:32;1.17;;;0.70;;
73747;SDS011;62056;52.130;5.428;2023-04-30T14:09:58;2.30;;;0.80;;
73747;SDS011;62056;52.130;5.428;2023-04-30T14:12:25;2.25;;;0.80;;
73747;SDS011;62056;52.130;5.428;2023-04-30T14:14:52;1.25;;;0.70;;
73747;SDS011;62056;52.130;5.428;2023-04-30T14:17:19;1.17;;;0.60;;
73747;SDS011;62056;52.130;5.428;2023-04-30T14:19:46;1.03;;;0.70;;
73747;SDS011;62056;52.130;5.428;2023-04-30T14:22:12;1.75;;;0.52;;
73747;SDS011;62056;52.130;5.428;2023-04-30T14:24:42;1.70;;;0.70;;
73747;SDS011;62056;52.130;5.428;2023-04-30T14:27:08;1.10;;;0.60;;
73747;SDS011;62056;52.130;5.428;2023-04-30T14:29:35;1.10;;;0.80;;
73747;SDS011;62056;52.130;5.428;2023-04-30T14:32:02;1.00;;;0.53;;
73747;SDS011;62056;52.130;5.428;2023-04-30T14:34:30;1.67;;;0.95;;
73747;SDS011;62056;52.130;5.428;2023-04-30T14:36:57;1.35;;;0.70;;
73747;SDS011;62056;52.130;5.428;2023-04-30T14:39:26;0.82;;;0.52;;
73747;SDS011;62056;52.130;5.428;2023-04-30T14:41:53;1.67;;;1.05;;
73747;SDS011;62056;52.130;5.428;2023-04-30T14:44:21;1.90;;;0.60;;
73747;SDS011;62056;52.130;5.428;2023-04-30T14:46:50;2.83;;;0.93;;
73747;SDS011;62056;52.130;5.428;2023-04-30T14:49:17;1.33;;;0.70;;
73747;SDS011;62056;52.130;5.428;2023-04-30T14:51:44;3.33;;;0.75;;
73747;SDS011;62056;52.130;5.428;2023-04-30T14:54:11;0.90;;;0.70;;
73747;SDS011;62056;52.130;5.428;2023-04-30T14:56:38;1.13;;;0.50;;
73747;SDS011;62056;52.130;5.428;2023-04-30T14:59:04;1.13;;;0.60;;
73747;SDS011;62056;52.130;5.428;2023-04-30T15:01:31;1.00;;;0.60;;
73747;SDS011;62056;52.130;5.428;2023-04-30T15:03:58;1.13;;;0.60;;
73747;SDS011;62056;52.130;5.428;2023-04-30T15:06:27;1.00;;;0.68;;
73747;SDS011;62056;52.130;5.428;2023-04-30T15:08:57;1.00;;;0.60;;
73747;SDS011;62056;52.130;5.428;2023-04-30T15:11:24;1.10;;;0.75;;
73747;SDS011;62056;52.130;5.428;2023-04-30T15:14:18;0.80;;;0.50;;
73747;SDS011;62056;52.130;5.428;2023-04-30T15:16:45;1.13;;;0.50;;
73747;SDS011;62056;52.130;5.428;2023-04-30T15:19:12;1.42;;;0.90;;
73747;SDS011;62056;52.130;5.428;2023-04-30T15:21:39;1.50;;;0.60;;